sensor_id;sensor_type;location;lat;lon;timestamp;temperature;humidity
15217;DHT22;7711;46.634;14.318;2023-04-25T00:00:58;7.10;1.00
15217;DHT22;7711;46.634;14.318;2023-04-25T00:03:25;7.20;1.00
15217;DHT22;7711;46.634;14.318;2023-04-25T00:05:53;7.20;1.00
15217;DHT22;7711;46.634;14.318;2023-04-25T00:08:22;7.20;1.00
15217;DHT22;7711;46.634;14.318;2023-04-25T00:10:49;7.20;1.00
15217;DHT22;7711;46.634;14.318;2023-04-25T00:13:16;7.10;99.90
15217;DHT22;7711;46.634;14.318;2023-04-25T00:15:44;7.10;99.90
15217;DHT22;7711;46.634;14.318;2023-04-25T00:18:11;7.20;99.90
15217;DHT22;7711;46.634;14.318;2023-04-25T00:20:38;7.30;99.90
15217;DHT22;7711;46.634;14.318;2023-04-25T00:23:07;7.20;51.40
15217;DHT22;7711;46.634;14.318;2023-04-25T00:25:34;7.20;1.00
15217;DHT22;7711;46.634;14.318;2023-04-25T00:28:00;7.20;1.00
15217;DHT22;7711;46.634;14.318;2023-04-25T00:30:27;7.20;1.00
15217;DHT22;7711;46.634;14.318;2023-04-25T00:32:54;7.10;40.10
15217;DHT22;7711;46.634;14.318;2023-04-25T00:35:21;7.10;1.00
15217;DHT22;7711;46.634;14.318;2023-04-25T00:37:48;7.10;64.20
15217;DHT22;7711;46.634;14.318;2023-04-25T00:40:17;7.10;1.00
15217;DHT22;7711;46.634;14.318;2023-04-25T00:42:44;7.10;1.00
15217;DHT22;7711;46.634;14.318;2023-04-25T00:45:13;7.20;1.00
15217;DHT22;7711;46.634;14.318;2023-04-25T00:47:41;7.10;1.00
15217;DHT22;7711;46.634;14.318;2023-04-25T00:50:09;7.20;1.00
15217;DHT22;7711;46.634;14.318;2023-04-25T00:52:36;7.10;1.00
15217;DHT22;7711;46.634;14.318;2023-04-25T00:55:05;7.20;42.50
15217;DHT22;7711;46.634;14.318;2023-04-25T00:57:33;7.10;1.00
15217;DHT22;7711;46.634;14.318;2023-04-25T01:00:01;7.10;99.90
15217;DHT22;7711;46.634;14.318;2023-04-25T01:02:29;7.00;99.90
15217;DHT22;7711;46.634;14.318;2023-04-25T01:04:56;7.00;1.00
15217;DHT22;7711;46.634;14.318;2023-04-25T01:07:24;7.00;1.00
15217;DHT22;7711;46.634;14.318;2023-04-25T01:09:52;7.00;1.00
15217;DHT22;7711;46.634;14.318;2023-04-25T01:12:19;7.00;1.00
15217;DHT22;7711;46.634;14.318;2023-04-25T01:14:47;6.90;1.00
15217;DHT22;7711;46.634;14.318;2023-04-25T01:17:15;7.00;99.90
15217;DHT22;7711;46.634;14.318;2023-04-25T01:19:43;7.10;1.00
15217;DHT22;7711;46.634;14.318;2023-04-25T01:22:13;6.90;1.00
15217;DHT22;7711;46.634;14.318;2023-04-25T01:24:40;6.90;4.10
15217;DHT22;7711;46.634;14.318;2023-04-25T01:27:07;6.90;1.00
15217;DHT22;7711;46.634;14.318;2023-04-25T01:29:36;6.90;1.50
15217;DHT22;7711;46.634;14.318;2023-04-25T01:32:04;6.90;99.90
15217;DHT22;7711;46.634;14.318;2023-04-25T01:34:32;6.80;1.00
15217;DHT22;7711;46.634;14.318;2023-04-25T01:36:59;6.80;1.00
15217;DHT22;7711;46.634;14.318;2023-04-25T01:39:28;6.90;1.00
15217;DHT22;7711;46.634;14.318;2023-04-25T01:41:56;6.90;1.00
15217;DHT22;7711;46.634;14.318;2023-04-25T01:44:23;6.90;1.00
15217;DHT22;7711;46.634;14.318;2023-04-25T01:46:51;6.80;1.00
15217;DHT22;7711;46.634;14.318;2023-04-25T01:49:18;6.80;1.00
15217;DHT22;7711;46.634;14.318;2023-04-25T01:51:45;6.90;1.00
15217;DHT22;7711;46.634;14.318;2023-04-25T01:54:12;6.90;1.00
15217;DHT22;7711;46.634;14.318;2023-04-25T01:56:41;6.90;1.00
15217;DHT22;7711;46.634;14.318;2023-04-25T01:59:08;6.90;1.00
15217;DHT22;7711;46.634;14.318;2023-04-25T02:01:35;6.90;1.00
15217;DHT22;7711;46.634;14.318;2023-04-25T02:04:02;6.80;1.00
15217;DHT22;7711;46.634;14.318;2023-04-25T02:06:29;6.80;1.00
15217;DHT22;7711;46.634;14.318;2023-04-25T02:08:56;6.90;99.90
15217;DHT22;7711;46.634;14.318;2023-04-25T02:11:23;6.80;1.00
15217;DHT22;7711;46.634;14.318;2023-04-25T02:13:51;6.80;99.90
15217;DHT22;7711;46.634;14.318;2023-04-25T02:16:19;6.80;1.00
15217;DHT22;7711;46.634;14.318;2023-04-25T02:18:46;6.80;1.00
15217;DHT22;7711;46.634;14.318;2023-04-25T02:21:13;6.80;99.90
15217;DHT22;7711;46.634;14.318;2023-04-25T02:23:40;6.80;99.90
15217;DHT22;7711;46.634;14.318;2023-04-25T02:26:09;6.90;1.00
15217;DHT22;7711;46.634;14.318;2023-04-25T02:28:36;6.70;1.00
15217;DHT22;7711;46.634;14.318;2023-04-25T02:31:05;6.70;1.00
15217;DHT22;7711;46.634;14.318;2023-04-25T02:33:32;6.60;99.90
15217;DHT22;7711;46.634;14.318;2023-04-25T02:36:00;6.60;99.90
15217;DHT22;7711;46.634;14.318;2023-04-25T02:38:26;6.60;99.90
15217;DHT22;7711;46.634;14.318;2023-04-25T02:40:53;6.70;1.00
15217;DHT22;7711;46.634;14.318;2023-04-25T02:43:21;6.70;1.00
15217;DHT22;7711;46.634;14.318;2023-04-25T02:45:48;6.70;1.00
15217;DHT22;7711;46.634;14.318;2023-04-25T02:48:16;6.80;1.00
15217;DHT22;7711;46.634;14.318;2023-04-25T02:50:43;6.60;1.00
15217;DHT22;7711;46.634;14.318;2023-04-25T02:53:10;6.60;99.90
15217;DHT22;7711;46.634;14.318;2023-04-25T02:55:37;6.50;1.00
15217;DHT22;7711;46.634;14.318;2023-04-25T02:58:04;6.60;1.00
15217;DHT22;7711;46.634;14.318;2023-04-25T03:00:31;6.60;1.00
15217;DHT22;7711;46.634;14.318;2023-04-25T03:02:58;6.60;1.00
15217;DHT22;7711;46.634;14.318;2023-04-25T03:05:27;6.70;99.90
15217;DHT22;7711;46.634;14.318;2023-04-25T03:07:53;6.50;1.00
15217;DHT22;7711;46.634;14.318;2023-04-25T03:10:20;6.50;99.90
15217;DHT22;7711;46.634;14.318;2023-04-25T03:12:47;6.60;99.90
15217;DHT22;7711;46.634;14.318;2023-04-25T03:15:14;6.60;1.00
15217;DHT22;7711;46.634;14.318;2023-04-25T03:17:42;6.60;99.90
15217;DHT22;7711;46.634;14.318;2023-04-25T03:20:10;6.60;1.00
15217;DHT22;7711;46.634;14.318;2023-04-25T03:22:38;6.50;1.00
15217;DHT22;7711;46.634;14.318;2023-04-25T03:25:06;6.50;99.90
15217;DHT22;7711;46.634;14.318;2023-04-25T03:27:34;6.60;99.90
15217;DHT22;7711;46.634;14.318;2023-04-25T03:30:00;6.50;1.00
15217;DHT22;7711;46.634;14.318;2023-04-25T03:32:28;6.50;99.90
15217;DHT22;7711;46.634;14.318;2023-04-25T03:34:55;6.50;1.00
15217;DHT22;7711;46.634;14.318;2023-04-25T03:37:22;6.50;1.00
15217;DHT22;7711;46.634;14.318;2023-04-25T03:39:51;6.50;1.00
15217;DHT22;7711;46.634;14.318;2023-04-25T03:42:18;6.50;99.90
15217;DHT22;7711;46.634;14.318;2023-04-25T03:44:45;6.40;99.90
15217;DHT22;7711;46.634;14.318;2023-04-25T03:47:12;6.40;1.00
15217;DHT22;7711;46.634;14.318;2023-04-25T03:49:39;6.30;1.00
15217;DHT22;7711;46.634;14.318;2023-04-25T03:52:06;6.40;1.00
15217;DHT22;7711;46.634;14.318;2023-04-25T03:54:33;6.30;99.90
15217;DHT22;7711;46.634;14.318;2023-04-25T03:57:01;6.30;1.00
15217;DHT22;7711;46.634;14.318;2023-04-25T03:59:28;6.30;99.90
15217;DHT22;7711;46.634;14.318;2023-04-25T04:01:56;6.30;99.90
15217;DHT22;7711;46.634;14.318;2023-04-25T04:04:23;6.30;1.00
15217;DHT22;7711;46.634;14.318;2023-04-25T04:06:49;6.30;1.00
15217;DHT22;7711;46.634;14.318;2023-04-25T04:09:18;6.20;1.00
15217;DHT22;7711;46.634;14.318;2023-04-25T04:11:45;6.20;99.90
15217;DHT22;7711;46.634;14.318;2023-04-25T04:14:14;6.20;99.90
15217;DHT22;7711;46.634;14.318;2023-04-25T04:16:41;6.20;1.00
15217;DHT22;7711;46.634;14.318;2023-04-25T04:19:08;6.10;99.90
15217;DHT22;7711;46.634;14.318;2023-04-25T04:21:35;6.20;99.90
15217;DHT22;7711;46.634;14.318;2023-04-25T04:24:03;6.20;1.00
15217;DHT22;7711;46.634;14.318;2023-04-25T04:26:32;6.20;1.00
15217;DHT22;7711;46.634;14.318;2023-04-25T04:29:00;6.20;1.00
15217;DHT22;7711;46.634;14.318;2023-04-25T04:31:28;6.20;1.00
15217;DHT22;7711;46.634;14.318;2023-04-25T04:33:56;6.20;99.90
15217;DHT22;7711;46.634;14.318;2023-04-25T04:36:23;6.20;99.90
15217;DHT22;7711;46.634;14.318;2023-04-25T04:38:51;6.10;99.90
15217;DHT22;7711;46.634;14.318;2023-04-25T04:41:19;6.10;99.90
15217;DHT22;7711;46.634;14.318;2023-04-25T04:43:46;6.20;99.90
15217;DHT22;7711;46.634;14.318;2023-04-25T04:46:13;6.20;99.90
15217;DHT22;7711;46.634;14.318;2023-04-25T04:48:41;6.30;99.90
15217;DHT22;7711;46.634;14.318;2023-04-25T04:51:10;6.30;99.90
15217;DHT22;7711;46.634;14.318;2023-04-25T04:53:37;6.30;99.90
15217;DHT22;7711;46.634;14.318;2023-04-25T04:56:04;6.20;99.90
15217;DHT22;7711;46.634;14.318;2023-04-25T04:58:31;6.00;99.90
15217;DHT22;7711;46.634;14.318;2023-04-25T05:00:58;6.00;1.00
15217;DHT22;7711;46.634;14.318;2023-04-25T05:03:25;6.10;1.00
15217;DHT22;7711;46.634;14.318;2023-04-25T05:05:54;6.00;1.00
15217;DHT22;7711;46.634;14.318;2023-04-25T05:08:21;6.10;1.00
15217;DHT22;7711;46.634;14.318;2023-04-25T05:10:48;6.00;1.00
15217;DHT22;7711;46.634;14.318;2023-04-25T05:13:14;6.00;1.00
15217;DHT22;7711;46.634;14.318;2023-04-25T05:15:41;5.90;1.00
15217;DHT22;7711;46.634;14.318;2023-04-25T05:18:08;6.00;1.00
15217;DHT22;7711;46.634;14.318;2023-04-25T05:20:35;5.90;1.00
15217;DHT22;7711;46.634;14.318;2023-04-25T05:23:04;5.90;1.00
15217;DHT22;7711;46.634;14.318;2023-04-25T05:25:31;5.90;99.90
15217;DHT22;7711;46.634;14.318;2023-04-25T05:27:58;6.00;99.90
15217;DHT22;7711;46.634;14.318;2023-04-25T05:30:25;6.10;99.90
15217;DHT22;7711;46.634;14.318;2023-04-25T05:32:52;6.00;99.90
15217;DHT22;7711;46.634;14.318;2023-04-25T05:35:19;6.00;99.90
15217;DHT22;7711;46.634;14.318;2023-04-25T05:37:46;6.20;99.90
15217;DHT22;7711;46.634;14.318;2023-04-25T05:40:14;6.10;1.00
15217;DHT22;7711;46.634;14.318;2023-04-25T05:42:41;6.10;1.00
15217;DHT22;7711;46.634;14.318;2023-04-25T05:45:09;6.10;1.00
15217;DHT22;7711;46.634;14.318;2023-04-25T05:47:36;6.20;1.00
15217;DHT22;7711;46.634;14.318;2023-04-25T05:50:03;6.20;1.00
15217;DHT22;7711;46.634;14.318;2023-04-25T05:52:30;6.20;1.00
15217;DHT22;7711;46.634;14.318;2023-04-25T05:54:57;6.20;1.00
15217;DHT22;7711;46.634;14.318;2023-04-25T05:57:27;6.20;1.00
15217;DHT22;7711;46.634;14.318;2023-04-25T05:59:54;6.40;1.00
15217;DHT22;7711;46.634;14.318;2023-04-25T06:02:21;6.50;1.00
15217;DHT22;7711;46.634;14.318;2023-04-25T06:04:49;6.60;1.00
15217;DHT22;7711;46.634;14.318;2023-04-25T06:07:17;6.30;1.00
15217;DHT22;7711;46.634;14.318;2023-04-25T06:09:44;6.40;1.00
15217;DHT22;7711;46.634;14.318;2023-04-25T06:12:11;6.50;1.00
15217;DHT22;7711;46.634;14.318;2023-04-25T06:14:40;6.60;1.00
15217;DHT22;7711;46.634;14.318;2023-04-25T06:17:07;6.60;1.00
15217;DHT22;7711;46.634;14.318;2023-04-25T06:19:34;6.70;1.00
15217;DHT22;7711;46.634;14.318;2023-04-25T06:22:02;6.70;1.00
15217;DHT22;7711;46.634;14.318;2023-04-25T06:24:29;6.70;1.00
15217;DHT22;7711;46.634;14.318;2023-04-25T06:26:56;6.60;1.00
15217;DHT22;7711;46.634;14.318;2023-04-25T06:29:23;6.60;1.00
15217;DHT22;7711;46.634;14.318;2023-04-25T06:31:51;6.80;1.00
15217;DHT22;7711;46.634;14.318;2023-04-25T06:34:18;6.70;1.00
15217;DHT22;7711;46.634;14.318;2023-04-25T06:36:46;6.60;1.00
15217;DHT22;7711;46.634;14.318;2023-04-25T06:39:13;6.60;1.00
15217;DHT22;7711;46.634;14.318;2023-04-25T06:41:40;6.60;1.00
15217;DHT22;7711;46.634;14.318;2023-04-25T06:44:07;6.60;1.00
15217;DHT22;7711;46.634;14.318;2023-04-25T06:46:34;6.60;1.00
15217;DHT22;7711;46.634;14.318;2023-04-25T06:49:03;6.60;1.00
15217;DHT22;7711;46.634;14.318;2023-04-25T06:51:30;6.70;1.00
15217;DHT22;7711;46.634;14.318;2023-04-25T06:53:57;6.70;1.00
15217;DHT22;7711;46.634;14.318;2023-04-25T06:56:24;7.10;1.00
15217;DHT22;7711;46.634;14.318;2023-04-25T06:58:51;7.60;1.00
15217;DHT22;7711;46.634;14.318;2023-04-25T07:01:18;7.70;99.90
15217;DHT22;7711;46.634;14.318;2023-04-25T07:03:45;7.70;99.90
15217;DHT22;7711;46.634;14.318;2023-04-25T07:06:13;7.80;99.90
15217;DHT22;7711;46.634;14.318;2023-04-25T07:08:40;8.00;99.90
15217;DHT22;7711;46.634;14.318;2023-04-25T07:11:07;8.00;99.90
15217;DHT22;7711;46.634;14.318;2023-04-25T07:13:34;7.90;99.90
15217;DHT22;7711;46.634;14.318;2023-04-25T07:16:02;7.90;99.90
15217;DHT22;7711;46.634;14.318;2023-04-25T07:18:29;8.10;99.90
15217;DHT22;7711;46.634;14.318;2023-04-25T07:20:56;8.00;99.90
15217;DHT22;7711;46.634;14.318;2023-04-25T07:23:24;7.90;99.90
15217;DHT22;7711;46.634;14.318;2023-04-25T07:25:51;8.10;99.90
15217;DHT22;7711;46.634;14.318;2023-04-25T07:28:18;8.40;99.90
15217;DHT22;7711;46.634;14.318;2023-04-25T07:30:46;8.70;99.90
15217;DHT22;7711;46.634;14.318;2023-04-25T07:33:13;8.80;99.90
15217;DHT22;7711;46.634;14.318;2023-04-25T07:35:40;8.40;99.90
15217;DHT22;7711;46.634;14.318;2023-04-25T07:38:07;8.00;99.90
15217;DHT22;7711;46.634;14.318;2023-04-25T07:40:37;8.10;99.90
15217;DHT22;7711;46.634;14.318;2023-04-25T07:43:04;7.90;99.90
15217;DHT22;7711;46.634;14.318;2023-04-25T07:45:31;7.90;99.90
15217;DHT22;7711;46.634;14.318;2023-04-25T07:47:58;8.20;99.90
15217;DHT22;7711;46.634;14.318;2023-04-25T07:50:25;8.10;99.90
15217;DHT22;7711;46.634;14.318;2023-04-25T07:52:52;8.10;99.90
15217;DHT22;7711;46.634;14.318;2023-04-25T07:55:19;8.20;99.90
15217;DHT22;7711;46.634;14.318;2023-04-25T07:57:47;8.20;99.90
15217;DHT22;7711;46.634;14.318;2023-04-25T08:00:15;8.10;99.90
15217;DHT22;7711;46.634;14.318;2023-04-25T08:02:42;8.30;99.90
15217;DHT22;7711;46.634;14.318;2023-04-25T08:05:09;8.60;99.90
15217;DHT22;7711;46.634;14.318;2023-04-25T08:07:39;8.50;99.90
15217;DHT22;7711;46.634;14.318;2023-04-25T08:10:08;8.90;99.90
15217;DHT22;7711;46.634;14.318;2023-04-25T08:12:35;9.40;99.90
15217;DHT22;7711;46.634;14.318;2023-04-25T08:15:05;9.60;99.90
15217;DHT22;7711;46.634;14.318;2023-04-25T08:17:32;9.90;99.90
15217;DHT22;7711;46.634;14.318;2023-04-25T08:19:59;10.10;99.90
15217;DHT22;7711;46.634;14.318;2023-04-25T08:22:28;10.50;99.90
15217;DHT22;7711;46.634;14.318;2023-04-25T08:24:55;10.10;99.90
15217;DHT22;7711;46.634;14.318;2023-04-25T08:27:22;10.10;99.90
15217;DHT22;7711;46.634;14.318;2023-04-25T08:29:50;10.50;99.90
15217;DHT22;7711;46.634;14.318;2023-04-25T08:32:19;9.80;99.90
15217;DHT22;7711;46.634;14.318;2023-04-25T08:34:46;10.10;99.90
15217;DHT22;7711;46.634;14.318;2023-04-25T08:37:13;10.00;99.90
15217;DHT22;7711;46.634;14.318;2023-04-25T08:39:40;10.50;99.90
15217;DHT22;7711;46.634;14.318;2023-04-25T08:42:07;10.10;99.90
15217;DHT22;7711;46.634;14.318;2023-04-25T08:44:34;10.20;99.90
15217;DHT22;7711;46.634;14.318;2023-04-25T08:47:02;10.00;99.90
15217;DHT22;7711;46.634;14.318;2023-04-25T08:49:32;10.30;99.90
15217;DHT22;7711;46.634;14.318;2023-04-25T08:52:01;10.10;99.90
15217;DHT22;7711;46.634;14.318;2023-04-25T08:54:31;9.70;99.90
15217;DHT22;7711;46.634;14.318;2023-04-25T08:57:01;9.60;99.90
15217;DHT22;7711;46.634;14.318;2023-04-25T08:59:30;10.10;99.90
15217;DHT22;7711;46.634;14.318;2023-04-25T09:01:57;9.60;99.90
15217;DHT22;7711;46.634;14.318;2023-04-25T09:04:24;9.90;99.90
15217;DHT22;7711;46.634;14.318;2023-04-25T09:06:53;10.40;99.90
15217;DHT22;7711;46.634;14.318;2023-04-25T09:09:20;10.90;99.90
15217;DHT22;7711;46.634;14.318;2023-04-25T09:11:47;10.70;99.90
15217;DHT22;7711;46.634;14.318;2023-04-25T09:14:15;10.80;99.90
15217;DHT22;7711;46.634;14.318;2023-04-25T09:16:59;10.70;99.90
15217;DHT22;7711;46.634;14.318;2023-04-25T09:19:28;10.40;99.90
15217;DHT22;7711;46.634;14.318;2023-04-25T09:21:59;10.70;99.90
15217;DHT22;7711;46.634;14.318;2023-04-25T09:24:34;10.20;99.90
15217;DHT22;7711;46.634;14.318;2023-04-25T09:27:04;10.40;99.90
15217;DHT22;7711;46.634;14.318;2023-04-25T09:29:32;10.40;99.90
15217;DHT22;7711;46.634;14.318;2023-04-25T09:32:19;10.50;99.90
15217;DHT22;7711;46.634;14.318;2023-04-25T09:34:47;10.40;99.90
15217;DHT22;7711;46.634;14.318;2023-04-25T09:37:20;10.50;99.90
15217;DHT22;7711;46.634;14.318;2023-04-25T09:39:48;10.40;99.90
15217;DHT22;7711;46.634;14.318;2023-04-25T09:42:16;10.60;99.90
15217;DHT22;7711;46.634;14.318;2023-04-25T09:44:44;11.00;99.90
15217;DHT22;7711;46.634;14.318;2023-04-25T09:47:13;10.90;99.90
15217;DHT22;7711;46.634;14.318;2023-04-25T09:49:41;10.60;99.90
15217;DHT22;7711;46.634;14.318;2023-04-25T09:52:09;10.50;99.90
15217;DHT22;7711;46.634;14.318;2023-04-25T09:54:38;10.20;99.90
15217;DHT22;7711;46.634;14.318;2023-04-25T09:57:11;10.80;99.90
15217;DHT22;7711;46.634;14.318;2023-04-25T09:59:39;11.20;99.90
15217;DHT22;7711;46.634;14.318;2023-04-25T10:02:08;11.70;99.90
15217;DHT22;7711;46.634;14.318;2023-04-25T10:04:36;12.20;99.90
15217;DHT22;7711;46.634;14.318;2023-04-25T10:07:05;12.60;99.90
15217;DHT22;7711;46.634;14.318;2023-04-25T10:09:33;12.20;99.90
15217;DHT22;7711;46.634;14.318;2023-04-25T10:12:05;12.90;99.90
15217;DHT22;7711;46.634;14.318;2023-04-25T10:14:32;13.40;99.90
15217;DHT22;7711;46.634;14.318;2023-04-25T10:16:59;13.50;99.90
15217;DHT22;7711;46.634;14.318;2023-04-25T10:19:27;13.40;99.90
15217;DHT22;7711;46.634;14.318;2023-04-25T10:22:02;13.90;99.90
15217;DHT22;7711;46.634;14.318;2023-04-25T10:24:30;13.60;99.90
15217;DHT22;7711;46.634;14.318;2023-04-25T10:26:58;13.70;99.90
15217;DHT22;7711;46.634;14.318;2023-04-25T10:29:26;13.80;99.90
15217;DHT22;7711;46.634;14.318;2023-04-25T10:31:54;14.00;99.90
15217;DHT22;7711;46.634;14.318;2023-04-25T10:34:24;13.60;99.90
15217;DHT22;7711;46.634;14.318;2023-04-25T10:36:53;13.50;99.90
15217;DHT22;7711;46.634;14.318;2023-04-25T10:39:24;13.70;99.90
15217;DHT22;7711;46.634;14.318;2023-04-25T10:41:56;14.20;99.90
15217;DHT22;7711;46.634;14.318;2023-04-25T10:44:28;14.60;99.90
15217;DHT22;7711;46.634;14.318;2023-04-25T10:46:55;14.80;99.90
15217;DHT22;7711;46.634;14.318;2023-04-25T10:49:31;14.80;99.90
15217;DHT22;7711;46.634;14.318;2023-04-25T10:52:15;14.70;99.90
15217;DHT22;7711;46.634;14.318;2023-04-25T10:54:46;15.00;99.90
15217;DHT22;7711;46.634;14.318;2023-04-25T10:57:29;14.00;99.90
15217;DHT22;7711;46.634;14.318;2023-04-25T11:00:05;13.50;99.90
15217;DHT22;7711;46.634;14.318;2023-04-25T11:02:37;14.00;99.90
15217;DHT22;7711;46.634;14.318;2023-04-25T11:05:06;13.80;99.90
15217;DHT22;7711;46.634;14.318;2023-04-25T11:07:38;13.10;99.90
15217;DHT22;7711;46.634;14.318;2023-04-25T11:10:06;13.60;99.90
15217;DHT22;7711;46.634;14.318;2023-04-25T11:12:33;14.60;99.90
15217;DHT22;7711;46.634;14.318;2023-04-25T11:15:03;15.00;99.90
15217;DHT22;7711;46.634;14.318;2023-04-25T11:17:31;15.40;99.90
15217;DHT22;7711;46.634;14.318;2023-04-25T11:19:58;15.90;99.90
15217;DHT22;7711;46.634;14.318;2023-04-25T11:22:26;15.70;99.90
15217;DHT22;7711;46.634;14.318;2023-04-25T11:24:54;15.40;99.90
15217;DHT22;7711;46.634;14.318;2023-04-25T11:27:21;15.20;99.90
15217;DHT22;7711;46.634;14.318;2023-04-25T11:29:50;15.20;99.90
15217;DHT22;7711;46.634;14.318;2023-04-25T11:32:19;15.80;99.90
15217;DHT22;7711;46.634;14.318;2023-04-25T11:34:46;15.90;99.90
15217;DHT22;7711;46.634;14.318;2023-04-25T11:37:14;15.90;99.90
15217;DHT22;7711;46.634;14.318;2023-04-25T11:39:44;16.10;99.90
15217;DHT22;7711;46.634;14.318;2023-04-25T11:42:12;16.20;99.90
15217;DHT22;7711;46.634;14.318;2023-04-25T11:44:39;15.90;99.90
15217;DHT22;7711;46.634;14.318;2023-04-25T11:47:07;15.80;99.90
15217;DHT22;7711;46.634;14.318;2023-04-25T11:49:35;16.10;99.90
15217;DHT22;7711;46.634;14.318;2023-04-25T11:52:03;16.00;99.90
15217;DHT22;7711;46.634;14.318;2023-04-25T11:54:35;16.20;99.90
15217;DHT22;7711;46.634;14.318;2023-04-25T11:57:02;16.40;99.90
15217;DHT22;7711;46.634;14.318;2023-04-25T11:59:29;16.30;99.90
15217;DHT22;7711;46.634;14.318;2023-04-25T12:01:57;15.90;99.90
15217;DHT22;7711;46.634;14.318;2023-04-25T12:04:25;15.50;99.90
15217;DHT22;7711;46.634;14.318;2023-04-25T12:06:54;15.80;99.90
15217;DHT22;7711;46.634;14.318;2023-04-25T12:09:28;15.70;99.90
15217;DHT22;7711;46.634;14.318;2023-04-25T12:11:56;16.30;99.90
15217;DHT22;7711;46.634;14.318;2023-04-25T12:14:25;16.30;99.90
15217;DHT22;7711;46.634;14.318;2023-04-25T12:16:54;15.60;99.90
15217;DHT22;7711;46.634;14.318;2023-04-25T12:19:23;15.60;99.90
15217;DHT22;7711;46.634;14.318;2023-04-25T12:21:50;15.40;99.90
15217;DHT22;7711;46.634;14.318;2023-04-25T12:24:23;15.60;99.90
15217;DHT22;7711;46.634;14.318;2023-04-25T12:26:52;15.80;99.90
15217;DHT22;7711;46.634;14.318;2023-04-25T12:29:21;15.10;99.90
15217;DHT22;7711;46.634;14.318;2023-04-25T12:31:49;14.70;99.90
15217;DHT22;7711;46.634;14.318;2023-04-25T12:34:16;14.80;99.90
15217;DHT22;7711;46.634;14.318;2023-04-25T12:36:43;14.70;99.90
15217;DHT22;7711;46.634;14.318;2023-04-25T12:39:15;14.70;99.90
15217;DHT22;7711;46.634;14.318;2023-04-25T12:41:44;15.00;99.90
15217;DHT22;7711;46.634;14.318;2023-04-25T12:44:11;15.10;99.90
15217;DHT22;7711;46.634;14.318;2023-04-25T12:46:39;14.10;99.90
15217;DHT22;7711;46.634;14.318;2023-04-25T12:49:08;14.50;99.90
15217;DHT22;7711;46.634;14.318;2023-04-25T12:51:35;14.40;99.90
15217;DHT22;7711;46.634;14.318;2023-04-25T12:54:04;14.30;99.90
15217;DHT22;7711;46.634;14.318;2023-04-25T12:56:31;14.60;99.90
15217;DHT22;7711;46.634;14.318;2023-04-25T12:59:00;14.20;99.90
15217;DHT22;7711;46.634;14.318;2023-04-25T13:01:28;14.50;99.90
15217;DHT22;7711;46.634;14.318;2023-04-25T13:03:56;14.50;99.90
15217;DHT22;7711;46.634;14.318;2023-04-25T13:06:23;14.50;99.90
15217;DHT22;7711;46.634;14.318;2023-04-25T13:08:50;14.30;99.90
15217;DHT22;7711;46.634;14.318;2023-04-25T13:11:17;14.10;99.90
15217;DHT22;7711;46.634;14.318;2023-04-25T13:13:44;14.20;99.90
15217;DHT22;7711;46.634;14.318;2023-04-25T13:16:13;14.40;99.90
15217;DHT22;7711;46.634;14.318;2023-04-25T13:18:40;14.20;99.90
15217;DHT22;7711;46.634;14.318;2023-04-25T13:21:09;14.00;99.90
15217;DHT22;7711;46.634;14.318;2023-04-25T13:23:37;14.20;99.90
15217;DHT22;7711;46.634;14.318;2023-04-25T13:26:04;14.00;99.90
15217;DHT22;7711;46.634;14.318;2023-04-25T13:28:31;13.80;99.90
15217;DHT22;7711;46.634;14.318;2023-04-25T13:30:58;13.90;99.90
15217;DHT22;7711;46.634;14.318;2023-04-25T13:33:26;13.70;99.90
15217;DHT22;7711;46.634;14.318;2023-04-25T13:35:54;14.30;99.90
15217;DHT22;7711;46.634;14.318;2023-04-25T13:38:23;14.60;99.90
15217;DHT22;7711;46.634;14.318;2023-04-25T13:40:51;14.60;99.90
15217;DHT22;7711;46.634;14.318;2023-04-25T13:43:19;14.30;99.90
15217;DHT22;7711;46.634;14.318;2023-04-25T13:45:46;14.00;99.90
15217;DHT22;7711;46.634;14.318;2023-04-25T13:48:13;14.30;99.90
15217;DHT22;7711;46.634;14.318;2023-04-25T13:50:41;13.90;99.90
15217;DHT22;7711;46.634;14.318;2023-04-25T13:53:08;14.10;99.90
15217;DHT22;7711;46.634;14.318;2023-04-25T13:55:36;14.10;99.90
15217;DHT22;7711;46.634;14.318;2023-04-25T13:58:04;14.10;99.90
15217;DHT22;7711;46.634;14.318;2023-04-25T14:00:35;13.70;99.90
15217;DHT22;7711;46.634;14.318;2023-04-25T14:03:03;13.60;99.90
15217;DHT22;7711;46.634;14.318;2023-04-25T14:05:33;13.50;99.90
15217;DHT22;7711;46.634;14.318;2023-04-25T14:08:05;13.60;99.90
15217;DHT22;7711;46.634;14.318;2023-04-25T14:10:32;13.30;99.90
15217;DHT22;7711;46.634;14.318;2023-04-25T14:13:00;13.20;99.90
15217;DHT22;7711;46.634;14.318;2023-04-25T14:15:29;13.20;99.90
15217;DHT22;7711;46.634;14.318;2023-04-25T14:17:56;13.20;99.90
15217;DHT22;7711;46.634;14.318;2023-04-25T14:20:23;13.10;99.90
15217;DHT22;7711;46.634;14.318;2023-04-25T14:22:50;13.40;99.90
15217;DHT22;7711;46.634;14.318;2023-04-25T14:25:19;13.30;99.90
15217;DHT22;7711;46.634;14.318;2023-04-25T14:27:46;13.40;99.90
15217;DHT22;7711;46.634;14.318;2023-04-25T14:30:15;13.50;99.90
15217;DHT22;7711;46.634;14.318;2023-04-25T14:32:42;13.60;99.90
15217;DHT22;7711;46.634;14.318;2023-04-25T14:35:10;13.30;99.90
15217;DHT22;7711;46.634;14.318;2023-04-25T14:37:37;13.30;99.90
15217;DHT22;7711;46.634;14.318;2023-04-25T14:40:05;13.20;99.90
15217;DHT22;7711;46.634;14.318;2023-04-25T14:42:35;13.30;99.90
15217;DHT22;7711;46.634;14.318;2023-04-25T14:45:03;13.00;99.90
15217;DHT22;7711;46.634;14.318;2023-04-25T14:47:30;13.20;99.90
15217;DHT22;7711;46.634;14.318;2023-04-25T14:49:57;13.60;99.90
15217;DHT22;7711;46.634;14.318;2023-04-25T14:52:24;13.80;99.90
15217;DHT22;7711;46.634;14.318;2023-04-25T14:54:51;13.60;99.90
15217;DHT22;7711;46.634;14.318;2023-04-25T14:57:18;13.70;99.90
15217;DHT22;7711;46.634;14.318;2023-04-25T14:59:46;13.70;99.90
15217;DHT22;7711;46.634;14.318;2023-04-25T15:02:13;14.00;99.90
15217;DHT22;7711;46.634;14.318;2023-04-25T15:04:40;14.20;99.90
15217;DHT22;7711;46.634;14.318;2023-04-25T15:07:07;15.00;99.90
15217;DHT22;7711;46.634;14.318;2023-04-25T15:09:34;15.80;99.90
15217;DHT22;7711;46.634;14.318;2023-04-25T15:12:02;16.20;99.90
15217;DHT22;7711;46.634;14.318;2023-04-25T15:14:29;16.50;99.90
15217;DHT22;7711;46.634;14.318;2023-04-25T15:16:57;16.60;99.90
15217;DHT22;7711;46.634;14.318;2023-04-25T15:19:24;17.80;99.90
15217;DHT22;7711;46.634;14.318;2023-04-25T15:21:51;18.10;99.00
15217;DHT22;7711;46.634;14.318;2023-04-25T15:24:19;18.00;99.90
15217;DHT22;7711;46.634;14.318;2023-04-25T15:26:47;18.90;96.40
15217;DHT22;7711;46.634;14.318;2023-04-25T15:29:14;18.60;94.70
15217;DHT22;7711;46.634;14.318;2023-04-25T15:31:41;18.10;95.20
15217;DHT22;7711;46.634;14.318;2023-04-25T15:34:09;18.10;95.40
15217;DHT22;7711;46.634;14.318;2023-04-25T15:36:36;18.60;92.10
15217;DHT22;7711;46.634;14.318;2023-04-25T15:39:03;17.90;92.10
15217;DHT22;7711;46.634;14.318;2023-04-25T15:41:30;18.60;90.60
15217;DHT22;7711;46.634;14.318;2023-04-25T15:43:59;18.60;88.40
15217;DHT22;7711;46.634;14.318;2023-04-25T15:46:26;17.70;85.60
15217;DHT22;7711;46.634;14.318;2023-04-25T15:48:55;17.30;90.80